Symphony Moderna — JG5131 — position and weather

sailwx.info

Track history (hours):
 
Tides and Currents Weather Stations Pressure Air Temp Water Temp Dewpoint Dewpoint Depression Visibility Wind Speed Wind Dir Waves Ship Positions

Symphony Moderna

Last reported at 2018-Jul-16 11:58 UTC. Time now 2018-Jul-16 12:23 UTC.
Position N 35°37' E 139°46'.

Length 83 m; draft 3.2 m.

Type: Ship. MMSI: 431000424.

Date/timePositionNaut miles runAvg speedWind from/ knotsBaromVisibWave heightAir tempDewpointWater temp
2018-Jul-16 11:58N 35°37' E 139°46'4 8.1
2018-Jul-16 11:30N 35°34' E 139°49'3 4.9
2018-Jul-16 10:59N 35°37' E 139°49'4 2.3
2018-Jul-16 09:18N 35°39' E 139°46'2 6.7
2018-Jul-16 09:01N 35°37' E 139°46'4 7.5
2018-Jul-16 08:30N 35°35' E 139°50'3 6.0
2018-Jul-16 08:00N 35°36' E 139°47'3 2.1
2018-Jul-16 06:43N 35°39' E 139°46'1 2.4
2018-Jul-16 06:30N 35°38' E 139°46'0 0.2
2018-Jul-16 04:54N 35°39' E 139°46'4 7.7
2018-Jul-16 04:24N 35°35' E 139°48'2 5.1
2018-Jul-16 03:59N 35°35' E 139°50'3 5.7
2018-Jul-16 03:29N 35°36' E 139°47'3 0.2
2018-Jul-15 12:26N 35°39' E 139°46'1 3.4
2018-Jul-15 12:00N 35°37' E 139°46'5 9.6
2018-Jul-15 11:30N 35°34' E 139°50'3 6.7
2018-Jul-15 11:00N 35°37' E 139°48'3 1.7
2018-Jul-15 09:19N 35°39' E 139°46'3 9.3
2018-Jul-15 08:57N 35°36' E 139°47'3 5.6
2018-Jul-15 08:30N 35°36' E 139°50'4 6.9
2018-Jul-15 08:00N 35°37' E 139°46'2 1.5
2018-Jul-15 06:38N 35°39' E 139°46'1 4.7
2018-Jul-15 06:30N 35°39' E 139°46'1 0.4
2018-Jul-15 04:59N 35°39' E 139°46'5 8.0
2018-Jul-15 04:24N 35°35' E 139°48'2 5.1
2018-Jul-15 04:00N 35°34' E 139°50'3 6.4
2018-Jul-15 03:30N 35°36' E 139°48'3 0.2
2018-Jul-14 12:24N 35°39' E 139°46'3 7.6
2018-Jul-14 11:58N 35°36' E 139°47'4 8.0
2018-Jul-14 11:30N 35°34' E 139°51'2 4.6
2018-Jul-14 10:59N 35°37' E 139°50'3 6.3
2018-Jul-14 10:30N 35°37' E 139°46'2 1.7
2018-Jul-14 09:17N 35°39' E 139°46'3 8.7
2018-Jul-14 08:54N 35°36' E 139°47'3 5.9
2018-Jul-14 08:27N 35°36' E 139°50'3 6.6
2018-Jul-14 07:58N 35°36' E 139°47'3 2.2
2018-Jul-14 06:44N 35°39' E 139°46'2 6.6
2018-Jul-14 06:29N 35°37' E 139°46'1 0.8
2018-Jul-14 04:54N 35°39' E 139°46'410.0
2018-Jul-14 04:30N 35°35' E 139°48'2 4.2
2018-Jul-14 04:00N 35°35' E 139°50'3 6.0
2018-Jul-14 03:28N 35°36' E 139°47'3 0.2
2018-Jul-13 12:32N 35°39' E 139°46'0 0.6
2018-Jul-13 12:26N 35°39' E 139°46'3 5.8
2018-Jul-13 12:00N 35°36' E 139°46'510.0
2018-Jul-13 11:30N 35°33' E 139°51'3 5.8
2018-Jul-13 11:00N 35°36' E 139°51'4 8.0
2018-Jul-13 10:28N 35°37' E 139°46'2 1.5
2018-Jul-13 09:10N 35°39' E 139°46'1 4.6
2018-Jul-13 08:59N 35°38' E 139°46'4 9.1
2018-Jul-13 08:30N 35°34' E 139°48'3 5.9
2018-Jul-13 07:59N 35°37' E 139°48'3 1.9
2018-Jul-13 06:35N 35°39' E 139°46'0 2.5
2018-Jul-13 06:27N 35°38' E 139°46'1 0.3
2018-Jul-13 04:46N 35°39' E 139°46'0 1.9
2018-Jul-13 04:30N 35°38' E 139°46'5 8.6
2018-Jul-13 03:59N 35°34' E 139°49'3 5.4
2018-Jul-13 03:30N 35°37' E 139°49'3 0.2
2018-Jul-12 12:25N 35°39' E 139°46'2 4.5
2018-Jul-12 12:00N 35°37' E 139°46'5 8.0
2018-Jul-12 11:24N 35°35' E 139°51'2 4.1
2018-Jul-12 11:00N 35°36' E 139°50'3 6.0
2018-Jul-12 10:30N 35°36' E 139°46'3 2.2
2018-Jul-12 09:15N 35°39' E 139°46'1 4.1
2018-Jul-12 08:55N 35°38' E 139°46'4 9.9
2018-Jul-12 08:30N 35°34' E 139°49'3 5.6
2018-Jul-12 08:00N 35°37' E 139°48'3 1.8
2018-Jul-12 06:35N 35°39' E 139°46'0 2.4
2018-Jul-12 06:26N 35°38' E 139°46'1 0.4
2018-Jul-12 04:47N 35°39' E 139°46'2 8.5
2018-Jul-12 04:30N 35°37' E 139°46'4 6.9
2018-Jul-12 03:59N 35°33' E 139°48'3 7.3
2018-Jul-12 03:30N 35°37' E 139°49'4 0.3
2018-Jul-11 12:28N 35°39' E 139°46'2 4.8
2018-Jul-11 12:00N 35°37' E 139°46'4 8.5
2018-Jul-11 11:30N 35°34' E 139°49'3 6.6
2018-Jul-11 11:00N 35°36' E 139°52'4 8.2
2018-Jul-11 10:30N 35°36' E 139°47'3 2.7
2018-Jul-11 09:20N 35°39' E 139°46'1 3.1
2018-Jul-11 09:00N 35°38' E 139°46'5 9.7
2018-Jul-11 08:30N 35°34' E 139°49'3 5.9
2018-Jul-11 07:58N 35°37' E 139°48'3 1.9
2018-Jul-11 06:35N 35°39' E 139°46'0 4.8
2018-Jul-11 06:30N 35°39' E 139°46'0 0.1
2018-Jul-11 04:52N 35°39' E 139°46'4 7.3
2018-Jul-11 04:21N 35°35' E 139°48'2 6.5
2018-Jul-11 04:00N 35°35' E 139°50'3 5.9
2018-Jul-11 03:30N 35°36' E 139°47'3 0.2
2018-Jul-10 12:21N 35°39' E 139°46'2 4.4
2018-Jul-10 11:59N 35°37' E 139°46'4 7.5
2018-Jul-10 11:30N 35°34' E 139°48'3 5.6
2018-Jul-10 11:00N 35°36' E 139°50'3 5.7
2018-Jul-10 10:29N 35°36' E 139°47'3 2.4
2018-Jul-10 09:16N 35°39' E 139°46'1 4.1
2018-Jul-10 09:00N 35°38' E 139°46'510.4
2018-Jul-10 08:30N 35°33' E 139°49'4 7.0
2018-Jul-10 07:59N 35°37' E 139°48'3 1.8
2018-Jul-10 06:34N 35°39' E 139°46'0 5.8
2018-Jul-10 06:30N 35°39' E 139°46'0 0.2
2018-Jul-10 04:52N 35°39' E 139°46'4 9.4
2018-Jul-10 04:28N 35°35' E 139°48'3 5.7
2018-Jul-10 04:00N 35°34' E 139°51'3 6.5
2018-Jul-10 03:30N 35°36' E 139°48'3 0.2
2018-Jul-09 12:22N 35°39' E 139°46'1 3.9
2018-Jul-09 11:59N 35°38' E 139°46'510.6
2018-Jul-09 11:30N 35°33' E 139°50'3 5.8
2018-Jul-09 11:00N 35°36' E 139°51'4 6.9
2018-Jul-09 10:28N 35°37' E 139°46'2 2.1
2018-Jul-09 09:18N 35°39' E 139°46'1 4.2
2018-Jul-09 08:57N 35°37' E 139°46'510.1
2018-Jul-09 08:29N 35°34' E 139°50'3 5.4
2018-Jul-09 07:59N 35°36' E 139°47'3 2.4
2018-Jul-09 06:38N 35°39' E 139°46'1 3.7
2018-Jul-09 06:30N 35°39' E 139°46'0 0.2
2018-Jul-09 04:45N 35°39' E 139°46'2 7.9
2018-Jul-09 04:30N 35°37' E 139°46'4 8.5
2018-Jul-09 03:59N 35°34' E 139°50'3 6.8
2018-Jul-09 03:29N 35°37' E 139°48'3 0.2
2018-Jul-08 12:22N 35°39' E 139°46'2 7.0
2018-Jul-08 12:00N 35°36' E 139°47'5 9.4
2018-Jul-08 11:29N 35°33' E 139°51'3 5.7
2018-Jul-08 10:59N 35°36' E 139°51'4 7.2
2018-Jul-08 10:29N 35°37' E 139°46'2 1.8
2018-Jul-08 09:14N 35°39' E 139°46'2 6.4
2018-Jul-08 08:58N 35°37' E 139°46'4 9.3
2018-Jul-08 08:30N 35°34' E 139°50'3 5.4
2018-Jul-08 08:00N 35°36' E 139°47'3 2.3
2018-Jul-08 06:39N 35°39' E 139°46'1 3.4
2018-Jul-08 06:29N 35°38' E 139°46'0 0.3
2018-Jul-08 04:54N 35°39' E 139°46'4 8.0
2018-Jul-08 04:27N 35°36' E 139°47'3 5.9
2018-Jul-08 03:58N 35°35' E 139°51'3 6.3
2018-Jul-08 03:30N 35°36' E 139°47'3 0.2
2018-Jul-07 12:29N 35°39' E 139°46'5 7.1
2018-Jul-07 11:47N 35°34' E 139°48'1 4.9
2018-Jul-07 11:30N 35°34' E 139°50'2 4.6
2018-Jul-07 10:59N 35°36' E 139°50'3 7.1
2018-Jul-07 10:30N 35°37' E 139°46'2 1.9
2018-Jul-07 09:18N 35°39' E 139°46'1 4.6
2018-Jul-07 09:01N 35°38' E 139°46'510.5
2018-Jul-07 08:30N 35°33' E 139°50'1 2.8
2018-Jul-07 08:00N 35°32' E 139°49'3 5.3
2018-Jul-07 07:29N 35°34' E 139°51'3 5.8
2018-Jul-07 06:57N 35°36' E 139°47'3 1.8
2018-Jul-07 05:04N 35°39' E 139°46'0 1.1
2018-Jul-07 04:59N 35°39' E 139°46'4 8.1
2018-Jul-07 04:28N 35°35' E 139°48'2 4.3
2018-Jul-07 03:58N 35°36' E 139°50'3 6.3
2018-Jul-07 03:28N 35°37' E 139°46'2 0.2
2018-Jul-06 12:36N 35°39' E 139°46'0 1.5
2018-Jul-06 12:24N 35°39' E 139°46'  
Track history (hours):
 
Tides and Currents Weather Stations Pressure Air Temp Water Temp Dewpoint Dewpoint Depression Visibility Wind Speed Wind Dir Waves Ship Positions

Symphony Moderna

Last reported at 2018-Jul-16 11:58 UTC. Time now 2018-Jul-16 12:23 UTC.
Position N 35°37' E 139°46'.

Length 83 m; draft 3.2 m.

Type: Ship. MMSI: 431000424.

Date/timePositionNaut miles runAvg speedWind from/ knotsBaromVisibWave heightAir tempDewpointWater temp
2018-Jul-16 11:58N 35°37' E 139°46'4 8.1
2018-Jul-16 11:30N 35°34' E 139°49'3 4.9
2018-Jul-16 10:59N 35°37' E 139°49'4 2.3
2018-Jul-16 09:18N 35°39' E 139°46'2 6.7
2018-Jul-16 09:01N 35°37' E 139°46'4 7.5
2018-Jul-16 08:30N 35°35' E 139°50'3 6.0
2018-Jul-16 08:00N 35°36' E 139°47'3 2.1
2018-Jul-16 06:43N 35°39' E 139°46'1 2.4
2018-Jul-16 06:30N 35°38' E 139°46'0 0.2
2018-Jul-16 04:54N 35°39' E 139°46'4 7.7
2018-Jul-16 04:24N 35°35' E 139°48'2 5.1
2018-Jul-16 03:59N 35°35' E 139°50'3 5.7
2018-Jul-16 03:29N 35°36' E 139°47'3 0.2
2018-Jul-15 12:26N 35°39' E 139°46'1 3.4
2018-Jul-15 12:00N 35°37' E 139°46'5 9.6
2018-Jul-15 11:30N 35°34' E 139°50'3 6.7
2018-Jul-15 11:00N 35°37' E 139°48'3 1.7
2018-Jul-15 09:19N 35°39' E 139°46'3 9.3
2018-Jul-15 08:57N 35°36' E 139°47'3 5.6
2018-Jul-15 08:30N 35°36' E 139°50'4 6.9
2018-Jul-15 08:00N 35°37' E 139°46'2 1.5
2018-Jul-15 06:38N 35°39' E 139°46'1 4.7
2018-Jul-15 06:30N 35°39' E 139°46'1 0.4
2018-Jul-15 04:59N 35°39' E 139°46'5 8.0
2018-Jul-15 04:24N 35°35' E 139°48'2 5.1
2018-Jul-15 04:00N 35°34' E 139°50'3 6.4
2018-Jul-15 03:30N 35°36' E 139°48'3 0.2
2018-Jul-14 12:24N 35°39' E 139°46'3 7.6
2018-Jul-14 11:58N 35°36' E 139°47'4 8.0
2018-Jul-14 11:30N 35°34' E 139°51'2 4.6
2018-Jul-14 10:59N 35°37' E 139°50'3 6.3
2018-Jul-14 10:30N 35°37' E 139°46'2 1.7
2018-Jul-14 09:17N 35°39' E 139°46'3 8.7
2018-Jul-14 08:54N 35°36' E 139°47'3 5.9
2018-Jul-14 08:27N 35°36' E 139°50'3 6.6
2018-Jul-14 07:58N 35°36' E 139°47'3 2.2
2018-Jul-14 06:44N 35°39' E 139°46'2 6.6
2018-Jul-14 06:29N 35°37' E 139°46'1 0.8
2018-Jul-14 04:54N 35°39' E 139°46'410.0
2018-Jul-14 04:30N 35°35' E 139°48'2 4.2
2018-Jul-14 04:00N 35°35' E 139°50'3 6.0
2018-Jul-14 03:28N 35°36' E 139°47'3 0.2
2018-Jul-13 12:32N 35°39' E 139°46'0 0.6
2018-Jul-13 12:26N 35°39' E 139°46'3 5.8
2018-Jul-13 12:00N 35°36' E 139°46'510.0
2018-Jul-13 11:30N 35°33' E 139°51'3 5.8
2018-Jul-13 11:00N 35°36' E 139°51'4 8.0
2018-Jul-13 10:28N 35°37' E 139°46'2 1.5
2018-Jul-13 09:10N 35°39' E 139°46'1 4.6
2018-Jul-13 08:59N 35°38' E 139°46'4 9.1
2018-Jul-13 08:30N 35°34' E 139°48'3 5.9
2018-Jul-13 07:59N 35°37' E 139°48'3 1.9
2018-Jul-13 06:35N 35°39' E 139°46'0 2.5
2018-Jul-13 06:27N 35°38' E 139°46'1 0.3
2018-Jul-13 04:46N 35°39' E 139°46'0 1.9
2018-Jul-13 04:30N 35°38' E 139°46'5 8.6
2018-Jul-13 03:59N 35°34' E 139°49'3 5.4
2018-Jul-13 03:30N 35°37' E 139°49'3 0.2
2018-Jul-12 12:25N 35°39' E 139°46'2 4.5
2018-Jul-12 12:00N 35°37' E 139°46'5 8.0
2018-Jul-12 11:24N 35°35' E 139°51'2 4.1
2018-Jul-12 11:00N 35°36' E 139°50'3 6.0
2018-Jul-12 10:30N 35°36' E 139°46'3 2.2
2018-Jul-12 09:15N 35°39' E 139°46'1 4.1
2018-Jul-12 08:55N 35°38' E 139°46'4 9.9
2018-Jul-12 08:30N 35°34' E 139°49'3 5.6
2018-Jul-12 08:00N 35°37' E 139°48'3 1.8
2018-Jul-12 06:35N 35°39' E 139°46'0 2.4
2018-Jul-12 06:26N 35°38' E 139°46'1 0.4
2018-Jul-12 04:47N 35°39' E 139°46'2 8.5
2018-Jul-12 04:30N 35°37' E 139°46'4 6.9
2018-Jul-12 03:59N 35°33' E 139°48'3 7.3
2018-Jul-12 03:30N 35°37' E 139°49'4 0.3
2018-Jul-11 12:28N 35°39' E 139°46'2 4.8
2018-Jul-11 12:00N 35°37' E 139°46'4 8.5
2018-Jul-11 11:30N 35°34' E 139°49'3 6.6
2018-Jul-11 11:00N 35°36' E 139°52'4 8.2
2018-Jul-11 10:30N 35°36' E 139°47'3 2.7
2018-Jul-11 09:20N 35°39' E 139°46'1 3.1
2018-Jul-11 09:00N 35°38' E 139°46'5 9.7
2018-Jul-11 08:30N 35°34' E 139°49'3 5.9
2018-Jul-11 07:58N 35°37' E 139°48'3 1.9
2018-Jul-11 06:35N 35°39' E 139°46'0 4.8
2018-Jul-11 06:30N 35°39' E 139°46'0 0.1
2018-Jul-11 04:52N 35°39' E 139°46'4 7.3
2018-Jul-11 04:21N 35°35' E 139°48'2 6.5
2018-Jul-11 04:00N 35°35' E 139°50'3 5.9
2018-Jul-11 03:30N 35°36' E 139°47'3 0.2
2018-Jul-10 12:21N 35°39' E 139°46'2 4.4
2018-Jul-10 11:59N 35°37' E 139°46'4 7.5
2018-Jul-10 11:30N 35°34' E 139°48'3 5.6
2018-Jul-10 11:00N 35°36' E 139°50'3 5.7
2018-Jul-10 10:29N 35°36' E 139°47'3 2.4
2018-Jul-10 09:16N 35°39' E 139°46'1 4.1
2018-Jul-10 09:00N 35°38' E 139°46'510.4
2018-Jul-10 08:30N 35°33' E 139°49'4 7.0
2018-Jul-10 07:59N 35°37' E 139°48'3 1.8
2018-Jul-10 06:34N 35°39' E 139°46'0 5.8
2018-Jul-10 06:30N 35°39' E 139°46'0 0.2
2018-Jul-10 04:52N 35°39' E 139°46'4 9.4
2018-Jul-10 04:28N 35°35' E 139°48'3 5.7
2018-Jul-10 04:00N 35°34' E 139°51'3 6.5
2018-Jul-10 03:30N 35°36' E 139°48'3 0.2
2018-Jul-09 12:22N 35°39' E 139°46'1 3.9
2018-Jul-09 11:59N 35°38' E 139°46'510.6
2018-Jul-09 11:30N 35°33' E 139°50'3 5.8
2018-Jul-09 11:00N 35°36' E 139°51'4 6.9
2018-Jul-09 10:28N 35°37' E 139°46'2 2.1
2018-Jul-09 09:18N 35°39' E 139°46'1 4.2
2018-Jul-09 08:57N 35°37' E 139°46'510.1
2018-Jul-09 08:29N 35°34' E 139°50'3 5.4
2018-Jul-09 07:59N 35°36' E 139°47'3 2.4
2018-Jul-09 06:38N 35°39' E 139°46'1 3.7
2018-Jul-09 06:30N 35°39' E 139°46'0 0.2
2018-Jul-09 04:45N 35°39' E 139°46'2 7.9
2018-Jul-09 04:30N 35°37' E 139°46'4 8.5
2018-Jul-09 03:59N 35°34' E 139°50'3 6.8
2018-Jul-09 03:29N 35°37' E 139°48'3 0.2
2018-Jul-08 12:22N 35°39' E 139°46'2 7.0
2018-Jul-08 12:00N 35°36' E 139°47'5 9.4
2018-Jul-08 11:29N 35°33' E 139°51'3 5.7
2018-Jul-08 10:59N 35°36' E 139°51'4 7.2
2018-Jul-08 10:29N 35°37' E 139°46'2 1.8
2018-Jul-08 09:14N 35°39' E 139°46'2 6.4
2018-Jul-08 08:58N 35°37' E 139°46'4 9.3
2018-Jul-08 08:30N 35°34' E 139°50'3 5.4
2018-Jul-08 08:00N 35°36' E 139°47'3 2.3
2018-Jul-08 06:39N 35°39' E 139°46'1 3.4
2018-Jul-08 06:29N 35°38' E 139°46'0 0.3
2018-Jul-08 04:54N 35°39' E 139°46'4 8.0
2018-Jul-08 04:27N 35°36' E 139°47'3 5.9
2018-Jul-08 03:58N 35°35' E 139°51'3 6.3
2018-Jul-08 03:30N 35°36' E 139°47'3 0.2
2018-Jul-07 12:29N 35°39' E 139°46'5 7.1
2018-Jul-07 11:47N 35°34' E 139°48'1 4.9
2018-Jul-07 11:30N 35°34' E 139°50'2 4.6
2018-Jul-07 10:59N 35°36' E 139°50'3 7.1
2018-Jul-07 10:30N 35°37' E 139°46'2 1.9
2018-Jul-07 09:18N 35°39' E 139°46'1 4.6
2018-Jul-07 09:01N 35°38' E 139°46'510.5
2018-Jul-07 08:30N 35°33' E 139°50'1 2.8
2018-Jul-07 08:00N 35°32' E 139°49'3 5.3
2018-Jul-07 07:29N 35°34' E 139°51'3 5.8
2018-Jul-07 06:57N 35°36' E 139°47'3 1.8
2018-Jul-07 05:04N 35°39' E 139°46'0 1.1
2018-Jul-07 04:59N 35°39' E 139°46'4 8.1
2018-Jul-07 04:28N 35°35' E 139°48'2 4.3
2018-Jul-07 03:58N 35°36' E 139°50'3 6.3
2018-Jul-07 03:28N 35°37' E 139°46'2 0.2
2018-Jul-06 12:36N 35°39' E 139°46'0 1.5
2018-Jul-06 12:24N 35°39' E 139°46'  

Dump ship's entire track history